createdAt,value
2019-05-12T00:00:12.993Z,11.12
2019-05-12T00:01:13.011Z,11.06
2019-05-12T00:02:12.987Z,11.09
2019-05-12T00:03:12.984Z,11.02
2019-05-12T00:04:12.952Z,10.98
2019-05-12T00:05:12.941Z,11.02
2019-05-12T00:06:12.951Z,11.02
2019-05-12T00:07:12.923Z,11.02
2019-05-12T00:08:12.923Z,10.99
2019-05-12T00:09:12.904Z,11.03
2019-05-12T00:10:12.896Z,11.01
2019-05-12T00:11:12.881Z,11.06
2019-05-12T00:12:12.878Z,11.01
2019-05-12T00:13:12.854Z,11.02
2019-05-12T00:14:12.856Z,10.99
2019-05-12T00:15:12.834Z,10.99
2019-05-12T00:16:12.829Z,10.98
2019-05-12T00:17:12.844Z,10.98
2019-05-12T00:18:12.804Z,11.01
2019-05-12T00:19:12.791Z,10.88
2019-05-12T00:20:12.786Z,10.93
2019-05-12T00:21:12.775Z,10.93
2019-05-12T00:22:12.778Z,10.98
2019-05-12T00:23:23.988Z,11.01
2019-05-12T00:24:13.739Z,10.90
2019-05-12T00:25:12.727Z,10.95
2019-05-12T00:26:12.725Z,10.95
2019-05-12T00:27:12.721Z,10.93
2019-05-12T00:28:12.701Z,10.93
2019-05-12T00:29:12.689Z,10.93
2019-05-12T00:30:12.682Z,10.94
2019-05-12T00:31:12.689Z,10.95
2019-05-12T00:32:12.667Z,10.93
2019-05-12T00:33:12.642Z,10.93
2019-05-12T00:34:12.644Z,10.94
2019-05-12T00:35:12.644Z,10.94
2019-05-12T00:36:12.605Z,10.88
2019-05-12T00:37:12.610Z,10.88
2019-05-12T00:38:12.590Z,10.87
2019-05-12T00:39:12.579Z,10.87
2019-05-12T00:40:12.568Z,10.87
2019-05-12T00:41:12.569Z,10.84
2019-05-12T00:42:12.572Z,10.84
2019-05-12T00:43:12.552Z,10.91
2019-05-12T00:44:12.522Z,10.88
2019-05-12T00:45:12.511Z,10.90
2019-05-12T00:46:12.499Z,10.93
2019-05-12T00:47:12.489Z,10.90
2019-05-12T00:48:12.513Z,10.88
2019-05-12T00:49:12.482Z,10.94
2019-05-12T00:50:12.456Z,10.93
2019-05-12T00:51:12.451Z,10.91
2019-05-12T00:52:12.443Z,10.87
2019-05-12T00:53:12.433Z,10.87
2019-05-12T00:54:12.434Z,10.90
2019-05-12T00:55:12.417Z,10.90
2019-05-12T00:56:12.393Z,10.93
2019-05-12T00:57:12.383Z,10.87
2019-05-12T00:58:12.372Z,10.90
2019-05-12T00:59:12.384Z,10.91
2019-05-12T01:00:12.356Z,10.86
2019-05-12T01:01:12.361Z,10.78
2019-05-12T01:02:12.335Z,10.80
2019-05-12T01:03:12.326Z,10.84
2019-05-12T01:04:12.309Z,10.83
2019-05-12T01:05:12.321Z,10.87
2019-05-12T01:06:12.302Z,10.80
2019-05-12T01:07:12.315Z,10.83
2019-05-12T01:08:12.268Z,10.83
2019-05-12T01:09:12.253Z,10.84
2019-05-12T01:10:12.260Z,10.83
2019-05-12T01:11:12.234Z,10.80
2019-05-12T01:12:12.249Z,10.83
2019-05-12T01:13:12.216Z,10.80
2019-05-12T01:14:12.207Z,10.86
2019-05-12T01:15:12.219Z,10.88
2019-05-12T01:16:12.179Z,10.70
2019-05-12T01:17:12.179Z,10.81
2019-05-12T01:18:12.164Z,10.83
2019-05-12T01:19:12.145Z,10.83
2019-05-12T01:20:12.142Z,10.76
2019-05-12T01:21:12.146Z,10.78
2019-05-12T01:22:12.117Z,10.75
2019-05-12T01:23:12.113Z,10.72
2019-05-12T01:24:12.110Z,10.68
2019-05-12T01:25:12.095Z,10.66
2019-05-12T01:26:12.117Z,10.73
2019-05-12T01:27:12.066Z,10.69
2019-05-12T01:28:12.048Z,10.73
2019-05-12T01:29:12.049Z,10.66
2019-05-12T01:30:12.029Z,10.70
2019-05-12T01:31:12.018Z,10.70
2019-05-12T01:32:12.029Z,10.65
2019-05-12T01:33:12.006Z,10.68
2019-05-12T01:34:11.990Z,10.66
2019-05-12T01:35:11.986Z,10.62
2019-05-12T01:36:11.966Z,10.63
2019-05-12T01:37:11.965Z,10.62
2019-05-12T01:38:11.953Z,10.65
2019-05-12T01:39:11.954Z,10.62
2019-05-12T01:40:11.932Z,10.63
2019-05-12T01:41:11.911Z,10.58
2019-05-12T01:42:11.928Z,10.57
2019-05-12T01:43:11.889Z,10.65
2019-05-12T01:44:11.888Z,10.63
2019-05-12T01:45:11.879Z,10.63
2019-05-12T01:46:11.878Z,10.65
2019-05-12T01:47:11.852Z,10.54
2019-05-12T01:48:11.851Z,10.62
2019-05-12T01:49:11.827Z,10.52
2019-05-12T01:50:11.816Z,10.60
2019-05-12T01:51:11.804Z,10.57
2019-05-12T01:52:11.798Z,10.57
2019-05-12T01:53:11.803Z,10.54
2019-05-12T01:54:14.882Z,10.54
2019-05-12T01:55:11.759Z,10.52
2019-05-12T01:56:11.761Z,10.54
2019-05-12T01:57:11.750Z,10.57
2019-05-12T01:58:11.758Z,10.54
2019-05-12T01:59:11.728Z,10.47
2019-05-12T02:00:11.710Z,10.55
2019-05-12T02:01:11.696Z,10.57
2019-05-12T02:02:11.708Z,10.57
2019-05-12T02:03:11.694Z,10.55
2019-05-12T02:04:11.704Z,10.54
2019-05-12T02:05:11.660Z,10.58
2019-05-12T02:06:11.655Z,10.55
2019-05-12T02:07:11.637Z,10.62
2019-05-12T02:08:11.635Z,10.55
2019-05-12T02:09:11.611Z,10.46
2019-05-12T02:10:11.614Z,10.60
2019-05-12T02:11:11.598Z,10.55
2019-05-12T02:12:11.585Z,10.46
2019-05-12T02:13:11.583Z,10.51
2019-05-12T02:14:11.556Z,10.55
2019-05-12T02:15:11.561Z,10.51
2019-05-12T02:16:11.541Z,10.52
2019-05-12T02:17:11.535Z,10.49
2019-05-12T02:18:11.531Z,10.49
2019-05-12T02:19:11.507Z,10.46
2019-05-12T02:20:11.502Z,10.46
2019-05-12T02:21:11.483Z,10.44
2019-05-12T02:22:11.475Z,10.46
2019-05-12T02:23:11.470Z,10.42
2019-05-12T02:24:23.295Z,10.39
2019-05-12T02:25:12.444Z,10.38
2019-05-12T02:26:11.431Z,10.35
2019-05-12T02:27:11.420Z,10.36
2019-05-12T02:28:11.426Z,10.38
2019-05-12T02:29:11.407Z,10.31
2019-05-12T02:30:11.393Z,10.38
2019-05-12T02:31:11.387Z,10.31
2019-05-12T02:32:11.373Z,10.38
2019-05-12T02:33:11.366Z,10.29
2019-05-12T02:34:15.335Z,10.38
2019-05-12T02:35:11.344Z,10.44
2019-05-12T02:36:14.865Z,10.38
2019-05-12T02:37:11.312Z,10.39
2019-05-12T02:38:14.288Z,10.35
2019-05-12T02:39:14.646Z,10.36
2019-05-12T02:40:14.915Z,10.25
2019-05-12T02:41:11.282Z,10.34
2019-05-12T02:42:11.262Z,10.35
2019-05-12T02:43:11.268Z,10.29
2019-05-12T02:44:14.658Z,10.25
2019-05-12T02:45:15.091Z,10.28
2019-05-12T02:46:11.231Z,10.26
2019-05-12T02:47:11.213Z,10.22
2019-05-12T02:48:14.156Z,10.26
2019-05-12T02:49:11.210Z,10.29
2019-05-12T02:50:14.367Z,10.28
2019-05-12T02:51:11.167Z,10.28
2019-05-12T02:52:11.160Z,10.29
2019-05-12T02:53:14.220Z,10.28
2019-05-12T02:54:14.236Z,10.29
2019-05-12T02:55:11.124Z,10.29
2019-05-12T02:56:11.116Z,10.25
2019-05-12T02:57:14.191Z,10.24
2019-05-12T02:58:11.104Z,10.24
2019-05-12T02:59:11.105Z,10.28
2019-05-12T03:00:11.064Z,10.31
2019-05-12T03:01:11.057Z,10.22
2019-05-12T03:02:13.959Z,10.26
2019-05-12T03:03:14.406Z,10.31
2019-05-12T03:04:11.045Z,10.29
2019-05-12T03:05:14.583Z,10.29
2019-05-12T03:06:11.009Z,10.20
2019-05-12T03:07:10.998Z,10.24
2019-05-12T03:08:10.981Z,10.14
2019-05-12T03:09:10.984Z,10.18
2019-05-12T03:10:10.970Z,10.18
2019-05-12T03:11:10.950Z,10.17
2019-05-12T03:12:10.948Z,10.17
2019-05-12T03:13:10.935Z,10.18
2019-05-12T03:14:10.949Z,10.13
2019-05-12T03:15:14.849Z,10.14
2019-05-12T03:16:10.912Z,10.14
2019-05-12T03:17:10.891Z,10.13
2019-05-12T03:18:10.891Z,10.16
2019-05-12T03:19:10.882Z,10.16
2019-05-12T03:20:10.853Z,10.16
2019-05-12T03:21:10.843Z,10.16
2019-05-12T03:22:13.911Z,10.10
2019-05-12T03:23:10.824Z,10.16
2019-05-12T03:24:10.844Z,10.09
2019-05-12T03:25:20.020Z,10.18
2019-05-12T03:26:15.110Z,10.18
2019-05-12T03:27:10.790Z,10.20
2019-05-12T03:28:10.779Z,10.16
2019-05-12T03:29:10.760Z,10.16
2019-05-12T03:30:12.519Z,10.11
2019-05-12T03:31:22.019Z,10.10
2019-05-12T03:32:17.312Z,10.13
2019-05-12T03:33:18.292Z,10.14
2019-05-12T03:34:18.560Z,10.11
2019-05-12T03:35:17.045Z,10.14
2019-05-12T03:36:17.173Z,10.11
2019-05-12T03:37:17.164Z,10.18
2019-05-12T03:38:14.532Z,10.11
2019-05-12T03:39:10.657Z,10.11
2019-05-12T03:40:10.643Z,10.13
2019-05-12T03:41:10.643Z,10.13
2019-05-12T03:42:10.626Z,10.16
2019-05-12T03:43:10.621Z,10.20
2019-05-12T03:44:10.608Z,10.18
2019-05-12T03:45:10.608Z,10.24
2019-05-12T03:46:10.593Z,10.24
2019-05-12T03:47:10.568Z,10.16
2019-05-12T03:48:10.563Z,10.25
2019-05-12T03:49:10.555Z,10.22
2019-05-12T03:50:10.546Z,10.17
2019-05-12T03:51:10.541Z,10.26
2019-05-12T03:52:10.514Z,10.24
2019-05-12T03:53:11.357Z,10.28
2019-05-12T03:54:10.495Z,10.29
2019-05-12T03:55:29.629Z,10.29
2019-05-12T03:56:14.858Z,10.31
2019-05-12T03:57:10.470Z,10.35
2019-05-12T03:58:10.458Z,10.35
2019-05-12T03:59:10.466Z,10.34
2019-05-12T04:00:10.435Z,10.42
2019-05-12T04:01:10.421Z,10.39
2019-05-12T04:02:10.431Z,10.29
2019-05-12T04:03:10.407Z,10.39
2019-05-12T04:04:10.388Z,10.38
2019-05-12T04:05:10.376Z,10.42
2019-05-12T04:06:10.369Z,10.43
2019-05-12T04:07:10.367Z,10.46
2019-05-12T04:08:10.358Z,10.35
2019-05-12T04:09:10.337Z,10.38
2019-05-12T04:10:10.326Z,10.36
2019-05-12T04:11:10.317Z,10.46
2019-05-12T04:12:10.327Z,10.42
2019-05-12T04:13:10.292Z,10.44
2019-05-12T04:14:10.276Z,10.44
2019-05-12T04:15:10.272Z,10.55
2019-05-12T04:16:10.263Z,10.57
2019-05-12T04:17:10.273Z,10.49
2019-05-12T04:18:10.239Z,10.47
2019-05-12T04:19:10.230Z,10.60
2019-05-12T04:20:10.245Z,10.58
2019-05-12T04:21:10.210Z,10.52
2019-05-12T04:22:10.416Z,10.57
2019-05-12T04:23:10.189Z,10.54
2019-05-12T04:24:10.181Z,10.62
2019-05-12T04:25:10.208Z,10.62
2019-05-12T04:26:13.340Z,10.57
2019-05-12T04:27:14.799Z,10.66
2019-05-12T04:28:10.138Z,10.60
2019-05-12T04:29:10.128Z,10.75
2019-05-12T04:30:10.118Z,10.65
2019-05-12T04:31:10.107Z,10.60
2019-05-12T04:32:10.085Z,10.70
2019-05-12T04:33:10.091Z,10.63
2019-05-12T04:34:14.570Z,10.65
2019-05-12T04:35:11.065Z,10.65
2019-05-12T04:36:10.043Z,10.72
2019-05-12T04:37:10.044Z,10.68
2019-05-12T04:38:10.049Z,10.65
2019-05-12T04:39:10.012Z,10.60
2019-05-12T04:40:10.008Z,10.76
2019-05-12T04:41:09.994Z,10.75
2019-05-12T04:42:09.988Z,10.72
2019-05-12T04:43:09.996Z,10.65
2019-05-12T04:44:09.964Z,10.66
2019-05-12T04:45:09.949Z,10.63
2019-05-12T04:46:09.946Z,10.55
2019-05-12T04:47:09.926Z,10.66
2019-05-12T04:48:09.942Z,10.63
2019-05-12T04:49:09.913Z,10.70
2019-05-12T04:50:09.897Z,10.68
2019-05-12T04:51:09.897Z,10.65
2019-05-12T04:52:09.886Z,10.63
2019-05-12T04:53:09.873Z,10.75
2019-05-12T04:54:09.869Z,10.75
2019-05-12T04:55:09.843Z,10.83
2019-05-12T04:56:16.824Z,10.72
2019-05-12T04:57:10.815Z,10.81
2019-05-12T04:58:09.804Z,10.78
2019-05-12T04:59:09.815Z,10.80
2019-05-12T05:00:09.791Z,10.84
2019-05-12T05:01:09.784Z,10.87
2019-05-12T05:02:09.771Z,10.88
2019-05-12T05:03:09.766Z,10.81
2019-05-12T05:04:09.743Z,10.93
2019-05-12T05:05:09.743Z,10.93
2019-05-12T05:06:09.728Z,11.01
2019-05-12T05:07:09.724Z,11.06
2019-05-12T05:08:09.703Z,11.03
2019-05-12T05:09:09.699Z,11.05
2019-05-12T05:10:09.711Z,11.11
2019-05-12T05:11:09.674Z,11.11
2019-05-12T05:12:09.667Z,11.05
2019-05-12T05:13:09.650Z,11.13
2019-05-12T05:14:09.642Z,11.12
2019-05-12T05:15:09.633Z,11.09
2019-05-12T05:16:09.626Z,11.11
2019-05-12T05:17:09.622Z,11.19
2019-05-12T05:18:09.595Z,11.23
2019-05-12T05:19:09.581Z,11.24
2019-05-12T05:20:09.579Z,11.26
2019-05-12T05:21:09.588Z,11.23
2019-05-12T05:22:09.548Z,11.20
2019-05-12T05:23:09.538Z,11.24
2019-05-12T05:24:09.531Z,11.30
2019-05-12T05:25:09.524Z,11.31
2019-05-12T05:26:21.151Z,11.33
2019-05-12T05:27:10.502Z,11.39
2019-05-12T05:28:09.486Z,11.41
2019-05-12T05:29:09.474Z,11.38
2019-05-12T05:30:09.480Z,11.63
2019-05-12T05:31:09.458Z,11.64
2019-05-12T05:32:09.473Z,11.78
2019-05-12T05:33:09.438Z,11.67
2019-05-12T05:34:09.426Z,11.79
2019-05-12T05:35:09.415Z,11.66
2019-05-12T05:36:15.260Z,11.57
2019-05-12T05:37:10.409Z,11.42
2019-05-12T05:38:10.879Z,11.39
2019-05-12T05:39:10.379Z,11.39
2019-05-12T05:40:09.402Z,11.48
2019-05-12T05:41:10.563Z,11.51
2019-05-12T05:42:09.334Z,11.63
2019-05-12T05:43:17.502Z,11.63
2019-05-12T05:44:10.317Z,11.69
2019-05-12T05:45:09.867Z,11.64
2019-05-12T05:46:10.301Z,11.69
2019-05-12T05:47:09.286Z,11.62
2019-05-12T05:48:10.208Z,11.46
2019-05-12T05:49:09.280Z,11.48
2019-05-12T05:50:09.248Z,11.39
2019-05-12T05:51:09.282Z,11.36
2019-05-12T05:52:09.232Z,11.39
2019-05-12T05:53:14.347Z,11.51
2019-05-12T05:54:10.204Z,11.51
2019-05-12T05:55:14.838Z,11.44
2019-05-12T05:56:10.203Z,11.46
2019-05-12T05:57:09.178Z,11.64
2019-05-12T05:58:10.611Z,11.67
2019-05-12T05:59:09.159Z,11.66
2019-05-12T06:00:17.475Z,11.66
2019-05-12T06:01:10.131Z,11.69
2019-05-12T06:02:09.122Z,11.77
2019-05-12T06:03:16.597Z,11.74
2019-05-12T06:04:10.121Z,11.87
2019-05-12T06:05:09.097Z,12.11
2019-05-12T06:06:12.443Z,12.21
2019-05-12T06:07:10.073Z,12.26
2019-05-12T06:08:16.572Z,12.36
2019-05-12T06:09:10.047Z,12.38
2019-05-12T06:10:09.042Z,12.30
2019-05-12T06:11:13.703Z,12.44
2019-05-12T06:12:10.194Z,12.46
2019-05-12T06:13:09.003Z,12.52
2019-05-12T06:14:14.089Z,12.37
2019-05-12T06:15:09.997Z,12.30
2019-05-12T06:16:11.716Z,12.29
2019-05-12T06:17:09.969Z,12.34
2019-05-12T06:18:08.956Z,12.63
2019-05-12T06:19:08.962Z,12.87
2019-05-12T06:20:08.942Z,12.88
2019-05-12T06:21:08.922Z,13.10
2019-05-12T06:22:13.831Z,13.25
2019-05-12T06:23:09.896Z,13.43
2019-05-12T06:24:13.839Z,13.55
2019-05-12T06:25:09.881Z,13.75
2019-05-12T06:26:08.863Z,13.93
2019-05-12T06:27:19.160Z,14.05
2019-05-12T06:28:09.846Z,14.21
2019-05-12T06:29:11.467Z,14.38
2019-05-12T06:30:09.831Z,14.60
2019-05-12T06:31:08.815Z,14.72
2019-05-12T06:32:10.805Z,15.11
2019-05-12T06:33:08.795Z,15.53
2019-05-12T06:34:15.529Z,15.66
2019-05-12T06:35:09.763Z,15.71
2019-05-12T06:36:14.033Z,16.10
2019-05-12T06:37:16.202Z,16.37
2019-05-12T06:38:09.754Z,16.67
2019-05-12T06:39:10.345Z,17.20
2019-05-12T06:40:09.711Z,17.70
2019-05-12T06:41:12.737Z,18.42
2019-05-12T06:42:14.076Z,18.64
2019-05-12T06:43:09.685Z,18.94
2019-05-12T06:44:13.727Z,19.10
2019-05-12T06:45:09.661Z,19.02
2019-05-12T06:46:11.784Z,19.46
2019-05-12T06:47:09.651Z,19.53
2019-05-12T06:48:08.633Z,19.68
2019-05-12T06:49:12.756Z,19.72
2019-05-12T06:50:09.610Z,19.52
2019-05-12T06:51:09.126Z,19.53
2019-05-12T06:52:09.585Z,19.52
2019-05-12T06:53:08.572Z,19.55
2019-05-12T06:54:12.066Z,20.22
2019-05-12T06:55:09.566Z,20.34
2019-05-12T06:56:09.504Z,21.00
2019-05-12T06:57:21.414Z,20.02
2019-05-12T06:58:09.518Z,19.79
2019-05-12T06:59:11.579Z,19.78
2019-05-12T07:00:08.525Z,19.55
2019-05-12T07:01:10.440Z,19.30
2019-05-12T07:02:09.483Z,18.87
2019-05-12T07:03:08.474Z,18.82
2019-05-12T07:04:10.218Z,18.97
2019-05-12T07:05:08.455Z,18.96
2019-05-12T07:06:09.283Z,18.97
2019-05-12T07:07:09.420Z,19.02
2019-05-12T07:08:08.419Z,19.17
2019-05-12T07:09:09.746Z,19.43
2019-05-12T07:10:13.054Z,19.83
2019-05-12T07:11:09.384Z,20.17
2019-05-12T07:12:08.367Z,20.76
2019-05-12T07:13:08.359Z,21.42
2019-05-12T07:14:18.818Z,22.19
2019-05-12T07:15:09.400Z,22.72
2019-05-12T07:16:10.114Z,23.12
2019-05-12T07:17:09.317Z,23.38
2019-05-12T07:18:10.106Z,23.64
2019-05-12T07:19:17.447Z,23.90
2019-05-12T07:20:09.314Z,23.90
2019-05-12T07:21:09.354Z,23.60
2019-05-12T07:22:21.647Z,23.22
2019-05-12T07:23:09.258Z,22.86
2019-05-12T07:24:11.061Z,22.54
2019-05-12T07:25:08.529Z,22.15
2019-05-12T07:26:14.189Z,22.04
2019-05-12T07:27:09.485Z,21.03
2019-05-12T07:28:08.381Z,21.21
2019-05-12T07:29:08.190Z,21.21
2019-05-12T07:30:08.196Z,21.16
2019-05-12T07:31:08.172Z,21.81
2019-05-12T07:32:16.460Z,22.42
2019-05-12T07:33:09.150Z,22.45
2019-05-12T07:34:08.139Z,22.41
2019-05-12T07:35:08.130Z,22.93
2019-05-12T07:36:08.124Z,23.52
2019-05-12T07:37:08.098Z,24.15
2019-05-12T07:38:12.093Z,24.29
2019-05-12T07:39:09.081Z,24.45
2019-05-12T07:40:08.075Z,24.63
2019-05-12T07:41:10.689Z,24.67
2019-05-12T07:42:08.054Z,24.55
2019-05-12T07:43:09.757Z,24.41
2019-05-12T07:44:09.032Z,24.19
2019-05-12T07:45:11.576Z,23.90
2019-05-12T07:46:09.028Z,23.77
2019-05-12T07:47:08.001Z,23.32
2019-05-12T07:48:10.138Z,23.75
2019-05-12T07:49:07.973Z,24.09
2019-05-12T07:50:09.954Z,24.51
2019-05-12T07:51:08.963Z,24.86
2019-05-12T07:52:07.948Z,25.08
2019-05-12T07:53:07.941Z,25.36
2019-05-12T07:54:07.926Z,25.79
2019-05-12T07:55:07.916Z,25.81
2019-05-12T07:56:07.917Z,26.12
2019-05-12T07:57:11.839Z,26.32
2019-05-12T07:58:14.067Z,26.68
2019-05-12T07:59:08.865Z,26.13
2019-05-12T08:00:11.382Z,26.39
2019-05-12T08:01:08.876Z,26.51
2019-05-12T08:02:07.849Z,26.68
2019-05-12T08:03:16.143Z,27.21
2019-05-12T08:04:08.832Z,27.23
2019-05-12T08:05:10.935Z,26.87
2019-05-12T08:06:08.845Z,26.96
2019-05-12T08:07:07.796Z,27.40
2019-05-12T08:08:10.845Z,27.71
2019-05-12T08:09:07.774Z,27.81
2019-05-12T08:10:17.739Z,27.90
2019-05-12T08:11:08.757Z,28.27
2019-05-12T08:12:09.706Z,27.90
2019-05-12T08:13:08.730Z,27.72
2019-05-12T08:14:13.678Z,27.77
2019-05-12T08:15:09.747Z,27.96
2019-05-12T08:16:07.717Z,27.61
2019-05-12T08:17:11.945Z,27.16
2019-05-12T08:18:08.680Z,26.71
2019-05-12T08:19:08.538Z,26.11
2019-05-12T08:20:07.656Z,25.41
2019-05-12T08:21:07.662Z,25.85
2019-05-12T08:22:07.641Z,26.31
2019-05-12T08:23:10.430Z,27.48
2019-05-12T08:24:07.621Z,28.45
2019-05-12T08:25:07.614Z,28.80
2019-05-12T08:26:12.058Z,28.62
2019-05-12T08:27:08.609Z,27.98
2019-05-12T08:28:15.421Z,27.05
2019-05-12T08:29:10.381Z,26.49
2019-05-12T08:30:08.554Z,26.76
2019-05-12T08:31:07.562Z,26.78
2019-05-12T08:32:09.927Z,27.12
2019-05-12T08:33:09.966Z,26.64
2019-05-12T08:34:07.525Z,26.31
2019-05-12T08:35:07.505Z,26.39
2019-05-12T08:36:11.227Z,26.24
2019-05-12T08:37:08.493Z,25.30
2019-05-12T08:38:07.483Z,25.09
2019-05-12T08:39:11.763Z,24.90
2019-05-12T08:40:08.459Z,25.07
2019-05-12T08:41:07.481Z,25.12
2019-05-12T08:42:07.439Z,24.68
2019-05-12T08:43:10.177Z,24.29
2019-05-12T08:44:07.428Z,24.30
2019-05-12T08:45:08.303Z,24.67
2019-05-12T08:46:12.240Z,24.64
2019-05-12T08:47:11.688Z,24.44
2019-05-12T08:48:10.410Z,24.16
2019-05-12T08:49:08.373Z,24.42
2019-05-12T08:50:07.363Z,24.09
2019-05-12T08:51:14.348Z,23.75
2019-05-12T08:52:08.362Z,23.96
2019-05-12T08:53:14.021Z,24.24
2019-05-12T08:54:08.482Z,24.15
2019-05-12T08:55:07.311Z,23.96
2019-05-12T08:56:12.856Z,23.81
2019-05-12T08:57:08.294Z,23.68
2019-05-12T08:58:07.295Z,23.77
2019-05-12T08:59:09.677Z,23.49
2019-05-12T09:00:08.771Z,23.54
2019-05-12T09:01:07.250Z,23.71
2019-05-12T09:02:10.478Z,23.89
2019-05-12T09:03:07.246Z,24.06
2019-05-12T09:04:12.096Z,24.21
2019-05-12T09:05:08.215Z,24.55
2019-05-12T09:06:09.312Z,24.64
2019-05-12T09:07:08.183Z,25.02
2019-05-12T09:08:07.184Z,25.22
2019-05-12T09:09:07.191Z,25.53
2019-05-12T09:10:07.160Z,25.89
2019-05-12T09:11:07.151Z,25.91
2019-05-12T09:12:07.133Z,24.89
2019-05-12T09:13:07.129Z,24.70
2019-05-12T09:14:07.129Z,24.86
2019-05-12T09:15:08.400Z,24.89
2019-05-12T09:16:09.636Z,24.93
2019-05-12T09:17:07.495Z,24.84
2019-05-12T09:18:07.086Z,24.89
2019-05-12T09:19:10.251Z,25.30
2019-05-12T09:20:08.987Z,25.78
2019-05-12T09:21:07.060Z,26.19
2019-05-12T09:22:16.116Z,26.29
2019-05-12T09:23:08.033Z,26.73
2019-05-12T09:24:07.033Z,26.53
2019-05-12T09:25:08.574Z,26.47
2019-05-12T09:26:06.997Z,26.66
2019-05-12T09:27:08.798Z,26.88
2019-05-12T09:28:06.987Z,27.08
2019-05-12T09:29:07.520Z,27.05
2019-05-12T09:30:09.728Z,26.93
2019-05-12T09:31:06.961Z,26.61
2019-05-12T09:32:09.526Z,26.72
2019-05-12T09:33:06.930Z,27.25
2019-05-12T09:34:11.605Z,26.90
2019-05-12T09:35:07.912Z,26.64
2019-05-12T09:36:11.429Z,26.44
2019-05-12T09:37:07.896Z,26.17
2019-05-12T09:38:11.474Z,26.28
2019-05-12T09:39:07.889Z,26.28
2019-05-12T09:40:06.865Z,26.29
2019-05-12T09:41:06.860Z,25.86
2019-05-12T09:42:06.849Z,25.46
2019-05-12T09:43:10.703Z,25.63
2019-05-12T09:44:06.833Z,26.23
2019-05-12T09:45:10.328Z,26.69
2019-05-12T09:46:06.804Z,27.40
2019-05-12T09:47:12.905Z,27.84
2019-05-12T09:48:09.385Z,28.05
2019-05-12T09:49:06.806Z,27.55
2019-05-12T09:50:09.735Z,27.13
2019-05-12T09:51:07.990Z,26.91
2019-05-12T09:52:06.754Z,27.24
2019-05-12T09:53:11.320Z,27.38
2019-05-12T09:54:06.739Z,27.69
2019-05-12T09:55:06.744Z,27.63
2019-05-12T09:56:06.711Z,27.74
2019-05-12T09:57:06.728Z,27.83
2019-05-12T09:58:06.704Z,27.88
2019-05-12T09:59:17.109Z,27.91
2019-05-12T10:00:07.710Z,27.81
2019-05-12T10:01:06.669Z,28.05
2019-05-12T10:02:10.473Z,28.14
2019-05-12T10:03:08.705Z,27.90
2019-05-12T10:04:10.272Z,27.62
2019-05-12T10:05:07.628Z,27.80
2019-05-12T10:06:11.319Z,28.05
2019-05-12T10:07:07.608Z,28.43
2019-05-12T10:08:06.610Z,28.72
2019-05-12T10:09:08.916Z,28.76
2019-05-12T10:10:07.580Z,28.98
2019-05-12T10:11:10.439Z,29.00
2019-05-12T10:12:07.569Z,29.05
2019-05-12T10:13:06.576Z,28.60
2019-05-12T10:14:10.797Z,28.70
2019-05-12T10:15:06.540Z,28.89
2019-05-12T10:16:08.781Z,29.07
2019-05-12T10:17:06.529Z,29.07
2019-05-12T10:18:11.033Z,28.98
2019-05-12T10:19:06.500Z,28.80
2019-05-12T10:20:06.496Z,28.40
2019-05-12T10:21:10.172Z,27.91
2019-05-12T10:22:07.520Z,27.81
2019-05-12T10:23:10.325Z,28.17
2019-05-12T10:24:07.453Z,28.09
2019-05-12T10:25:06.449Z,27.25
2019-05-12T10:26:10.120Z,26.88
2019-05-12T10:27:06.457Z,27.06
2019-05-12T10:28:11.533Z,27.20
2019-05-12T10:29:17.469Z,27.02
2019-05-12T10:30:12.348Z,26.87
2019-05-12T10:31:07.395Z,27.02
2019-05-12T10:32:06.416Z,27.58
2019-05-12T10:33:06.386Z,27.98
2019-05-12T10:34:06.372Z,28.14
2019-05-12T10:35:06.364Z,28.65
2019-05-12T10:36:08.485Z,29.11
2019-05-12T10:37:06.337Z,29.03
2019-05-12T10:38:10.700Z,29.07
2019-05-12T10:39:06.323Z,28.69
2019-05-12T10:40:06.319Z,28.67
2019-05-12T10:41:06.308Z,29.10
2019-05-12T10:42:06.293Z,29.15
2019-05-12T10:43:06.309Z,29.03
2019-05-12T10:44:06.283Z,29.07
2019-05-12T10:45:10.841Z,28.52
2019-05-12T10:46:07.269Z,29.18
2019-05-12T10:47:06.259Z,29.64
2019-05-12T10:48:06.251Z,30.00
2019-05-12T10:49:06.242Z,30.21
2019-05-12T10:50:06.222Z,29.27
2019-05-12T10:51:06.217Z,28.45
2019-05-12T10:52:06.223Z,28.45
2019-05-12T10:53:09.908Z,28.62
2019-05-12T10:54:12.596Z,28.27
2019-05-12T10:55:07.199Z,27.96
2019-05-12T10:56:06.171Z,27.65
2019-05-12T10:57:06.163Z,27.69
2019-05-12T10:58:07.279Z,27.78
2019-05-12T10:59:06.154Z,27.95
2019-05-12T11:00:06.142Z,27.77
2019-05-12T11:01:08.541Z,28.21
2019-05-12T11:02:06.122Z,28.73
2019-05-12T11:03:11.040Z,29.05
2019-05-12T11:04:07.125Z,28.83
2019-05-12T11:05:06.110Z,27.11
2019-05-12T11:06:07.698Z,27.39
2019-05-12T11:07:06.091Z,27.43
2019-05-12T11:08:10.786Z,27.43
2019-05-12T11:09:07.086Z,27.25
2019-05-12T11:10:15.446Z,27.65
2019-05-12T11:11:07.072Z,27.91
2019-05-12T11:12:06.093Z,27.25
2019-05-12T11:13:08.386Z,27.23
2019-05-12T11:14:06.036Z,26.93
2019-05-12T11:15:06.599Z,27.06
2019-05-12T11:16:06.006Z,27.08
2019-05-12T11:17:07.679Z,26.87
2019-05-12T11:18:05.988Z,26.32
2019-05-12T11:19:10.387Z,25.85
2019-05-12T11:20:05.979Z,26.00
2019-05-12T11:21:05.967Z,26.49
2019-05-12T11:22:05.951Z,26.87
2019-05-12T11:23:05.947Z,27.39
2019-05-12T11:24:06.987Z,27.71
2019-05-12T11:25:05.991Z,27.61
2019-05-12T11:26:05.901Z,27.02
2019-05-12T11:27:05.893Z,26.64
2019-05-12T11:28:05.888Z,26.61
2019-05-12T11:29:05.882Z,27.12
2019-05-12T11:30:05.888Z,27.95
2019-05-12T11:31:05.860Z,27.95
2019-05-12T11:32:05.855Z,28.06
2019-05-12T11:33:05.843Z,27.71
2019-05-12T11:34:06.032Z,28.08
2019-05-12T11:35:05.846Z,28.21
2019-05-12T11:36:05.818Z,28.39
2019-05-12T11:37:06.561Z,28.33
2019-05-12T11:38:05.804Z,28.20
2019-05-12T11:39:05.810Z,28.30
2019-05-12T11:40:05.797Z,28.17
2019-05-12T11:41:10.067Z,27.71
2019-05-12T11:42:06.841Z,27.59
2019-05-12T11:43:05.762Z,27.93
2019-05-12T11:44:05.749Z,28.65
2019-05-12T11:45:05.757Z,29.33
2019-05-12T11:46:05.740Z,29.79
2019-05-12T11:47:05.737Z,30.29
2019-05-12T11:48:09.965Z,30.75
2019-05-12T11:49:05.707Z,30.93
2019-05-12T11:50:09.770Z,31.52
2019-05-12T11:51:05.694Z,31.78
2019-05-12T11:52:13.289Z,31.22
2019-05-12T11:53:06.674Z,31.53
2019-05-12T11:54:08.977Z,31.50
2019-05-12T11:55:06.676Z,31.18
2019-05-12T11:56:07.652Z,31.23
2019-05-12T11:57:05.635Z,31.37
2019-05-12T11:58:09.820Z,31.59
2019-05-12T11:59:06.613Z,32.05
2019-05-12T12:00:05.627Z,32.44
2019-05-12T12:01:08.304Z,31.82
2019-05-12T12:02:05.590Z,31.67
2019-05-12T12:03:12.743Z,31.54
2019-05-12T12:04:06.576Z,31.53
2019-05-12T12:05:05.607Z,31.09
2019-05-12T12:06:05.581Z,30.37
2019-05-12T12:07:05.577Z,29.94
2019-05-12T12:08:05.537Z,30.08
2019-05-12T12:09:09.077Z,30.19
2019-05-12T12:10:06.541Z,29.95
2019-05-12T12:11:10.536Z,29.54
2019-05-12T12:12:07.463Z,29.35
2019-05-12T12:13:05.511Z,29.70
2019-05-12T12:14:08.845Z,30.76
2019-05-12T12:15:05.521Z,31.41
2019-05-12T12:16:07.040Z,31.99
2019-05-12T12:17:06.463Z,32.13
2019-05-12T12:18:12.986Z,31.90
2019-05-12T12:19:06.450Z,32.29
2019-05-12T12:20:05.450Z,32.34
2019-05-12T12:21:07.666Z,32.14
2019-05-12T12:22:05.425Z,32.36
2019-05-12T12:23:10.598Z,32.84
2019-05-12T12:24:06.434Z,33.09
2019-05-12T12:25:11.058Z,33.07
2019-05-12T12:26:06.404Z,32.87
2019-05-12T12:27:05.382Z,32.51
2019-05-12T12:28:05.371Z,32.62
2019-05-12T12:29:05.363Z,32.65
2019-05-12T12:30:15.683Z,32.24
2019-05-12T12:31:07.832Z,30.83
2019-05-12T12:32:09.968Z,30.56
2019-05-12T12:33:06.334Z,30.93
2019-05-12T12:34:05.344Z,31.42
2019-05-12T12:35:07.364Z,31.59
2019-05-12T12:36:06.336Z,31.98
2019-05-12T12:37:05.309Z,32.14
2019-05-12T12:38:05.296Z,32.12
2019-05-12T12:39:05.302Z,31.95
2019-05-12T12:40:05.271Z,32.02
2019-05-12T12:41:05.278Z,32.03
2019-05-12T12:42:05.255Z,32.76
2019-05-12T12:43:05.247Z,32.87
2019-05-12T12:44:05.243Z,33.26
2019-05-12T12:45:05.238Z,32.87
2019-05-12T12:46:10.750Z,31.30
2019-05-12T12:47:06.218Z,30.56
2019-05-12T12:48:05.229Z,30.59
2019-05-12T12:49:08.621Z,30.61
2019-05-12T12:50:06.195Z,30.88
2019-05-12T12:51:05.205Z,31.00
2019-05-12T12:52:05.181Z,30.93